createdAt,value
2024-04-19T00:00:40.496Z,10.5
2024-04-19T00:15:39.343Z,10.3
2024-04-19T00:30:40.530Z,14.5
2024-04-19T00:45:40.792Z,14.7
2024-04-19T01:00:41.472Z,16.1
2024-04-19T01:15:41.857Z,15.4
2024-04-19T01:30:42.721Z,15.7
2024-04-19T01:45:43.865Z,14.1
2024-04-19T02:00:44.266Z,14.3
2024-04-19T02:15:45.776Z,16.7
2024-04-19T02:30:48.160Z,15.3
2024-04-19T02:45:58.565Z,14.8
2024-04-19T03:00:47.381Z,15.3
2024-04-19T03:15:47.821Z,15.9
2024-04-19T03:30:48.843Z,16.1
2024-04-19T03:45:50.009Z,16.5
2024-04-19T04:00:52.373Z,18
2024-04-19T04:15:51.127Z,14.8
2024-04-19T04:30:50.991Z,14.6
2024-04-19T04:40:08.630Z,14.4
2024-04-19T04:55:08.516Z,12.8
2024-04-19T05:10:09.044Z,12.7
2024-04-19T05:25:10.036Z,10.6
2024-04-19T05:40:10.093Z,11.3
2024-04-19T05:55:11.082Z,9.3
2024-04-19T06:10:16.087Z,11.6
2024-04-19T06:25:12.337Z,12.1
2024-04-19T06:40:16.525Z,10.1
2024-04-19T06:55:14.091Z,10.3
2024-04-19T07:10:14.983Z,10.2
2024-04-19T07:25:15.098Z,10.8
2024-04-19T07:40:15.971Z,11.6
2024-04-19T07:55:20.013Z,14.2
2024-04-19T08:10:17.574Z,12.9
2024-04-19T08:40:19.500Z,10.1
2024-04-19T08:55:19.108Z,9.9
2024-04-19T09:10:21.765Z,10.4
2024-04-19T09:25:21.510Z,10.6
2024-04-19T09:40:28.134Z,8.2
2024-04-19T09:55:23.921Z,8.1
2024-04-19T10:10:23.703Z,7.7
2024-04-19T10:25:33.489Z,8.5
2024-04-19T10:40:23.210Z,6.1
2024-04-19T10:55:25.332Z,3.6
2024-04-19T11:10:25.086Z,3.7
2024-04-19T11:25:25.575Z,2.8
2024-04-19T11:40:27.036Z,2.5
2024-04-19T11:55:27.522Z,1.3
2024-04-19T12:10:27.518Z,1.3
2024-04-19T12:25:41.526Z,2
2024-04-19T12:41:08.688Z,2.5
2024-04-19T12:55:58.574Z,2.7
2024-04-19T13:10:30.327Z,2.7
2024-04-19T13:25:42.449Z,5.8
2024-04-19T13:40:36.083Z,2.9
2024-04-19T13:55:38.397Z,3.7
2024-04-19T14:10:33.342Z,2.9
2024-04-19T14:25:39.676Z,3.3
2024-04-19T14:40:34.335Z,4.4
2024-04-19T14:55:34.333Z,3.2
2024-04-19T15:10:35.302Z,3.6
2024-04-19T15:25:41.484Z,2.8
2024-04-19T15:40:41.786Z,6.1
2024-04-19T15:55:39.952Z,3.2
2024-04-19T16:10:40.551Z,2.9
2024-04-19T16:25:45.446Z,3
2024-04-19T16:40:42.456Z,2.4
2024-04-19T16:55:41.254Z,1.6
2024-04-19T17:10:40.761Z,1.6
2024-04-19T17:25:42.572Z,2.1
2024-04-19T17:40:44.896Z,2.4
2024-04-19T17:55:45.261Z,2.8
2024-04-19T18:10:44.627Z,3.7
2024-04-19T18:25:50.640Z,1.8
2024-04-19T18:41:05.851Z,1.3
2024-04-19T18:55:50.127Z,2.2
2024-04-19T19:10:51.280Z,1.9
2024-04-19T19:26:04.959Z,2.6
2024-04-19T19:40:47.943Z,2
2024-04-19T19:55:49.127Z,1.3
2024-04-19T20:10:55.651Z,0.9
2024-04-19T20:26:05.290Z,0.7
2024-04-19T20:41:12.143Z,0.2
2024-04-19T20:56:06.270Z,0.2
2024-04-19T21:10:54.837Z,0.1
2024-04-19T21:25:53.818Z,0.2
2024-04-19T21:40:53.403Z,1.1
2024-04-19T21:55:55.327Z,0.9
2024-04-19T22:00:39.580Z,1.5
2024-04-19T22:15:38.426Z,2.2
2024-04-19T22:30:37.981Z,2.3
2024-04-19T22:45:45.694Z,2.6
2024-04-19T23:15:50.111Z,3.1
2024-04-19T23:30:51.282Z,2.5
2024-04-19T23:45:52.628Z,0.5
